sensor_id;sensor_type;location;lat;lon;timestamp;pressure;altitude;pressure_sealevel;temperature;humidity
25947;BME280;13745;51.470;9.894;2022-09-12T00:02:06;99673.31;;;14.38;66.88
25947;BME280;13745;51.470;9.894;2022-09-12T00:04:52;99668.50;;;14.35;67.21
25947;BME280;13745;51.470;9.894;2022-09-12T00:07:38;99669.63;;;14.34;67.27
25947;BME280;13745;51.470;9.894;2022-09-12T00:10:25;99666.09;;;14.34;67.07
25947;BME280;13745;51.470;9.894;2022-09-12T00:13:11;99681.47;;;14.30;67.24
25947;BME280;13745;51.470;9.894;2022-09-12T00:15:57;99674.22;;;14.26;67.33
25947;BME280;13745;51.470;9.894;2022-09-12T00:18:43;99669.38;;;14.23;67.29
25947;BME280;13745;51.470;9.894;2022-09-12T00:21:31;99662.66;;;14.20;67.13
25947;BME280;13745;51.470;9.894;2022-09-12T00:24:17;99657.03;;;14.17;67.00
25947;BME280;13745;51.470;9.894;2022-09-12T00:27:04;99655.22;;;14.12;67.21
25947;BME280;13745;51.470;9.894;2022-09-12T00:29:50;99664.63;;;14.07;67.42
25947;BME280;13745;51.470;9.894;2022-09-12T00:32:36;99662.53;;;14.04;67.43
25947;BME280;13745;51.470;9.894;2022-09-12T00:35:22;99661.03;;;13.98;67.39
25947;BME280;13745;51.470;9.894;2022-09-12T00:38:07;99654.31;;;13.95;67.44
25947;BME280;13745;51.470;9.894;2022-09-12T00:40:53;99651.59;;;13.95;67.27
25947;BME280;13745;51.470;9.894;2022-09-12T00:43:41;99646.13;;;13.95;67.16
25947;BME280;13745;51.470;9.894;2022-09-12T00:46:33;99652.22;;;13.92;67.32
25947;BME280;13745;51.470;9.894;2022-09-12T00:49:23;99649.00;;;13.90;67.40
25947;BME280;13745;51.470;9.894;2022-09-12T00:52:12;99657.22;;;13.86;67.39
25947;BME280;13745;51.470;9.894;2022-09-12T00:55:02;99648.56;;;13.84;67.37
25947;BME280;13745;51.470;9.894;2022-09-12T00:57:52;99645.84;;;13.84;67.35
25947;BME280;13745;51.470;9.894;2022-09-12T01:00:40;99642.34;;;13.83;67.32
25947;BME280;13745;51.470;9.894;2022-09-12T01:03:26;99647.28;;;13.81;67.25
25947;BME280;13745;51.470;9.894;2022-09-12T01:06:15;99642.97;;;13.80;67.27
25947;BME280;13745;51.470;9.894;2022-09-12T01:09:03;99640.53;;;13.79;67.35
25947;BME280;13745;51.470;9.894;2022-09-12T01:11:50;99640.34;;;13.75;67.50
25947;BME280;13745;51.470;9.894;2022-09-12T01:14:37;99636.94;;;13.70;67.49
25947;BME280;13745;51.470;9.894;2022-09-12T01:17:28;99632.13;;;13.67;67.36
25947;BME280;13745;51.470;9.894;2022-09-12T01:21:01;99630.00;;;13.64;67.44
25947;BME280;13745;51.470;9.894;2022-09-12T01:27:25;99630.75;;;13.56;67.15
25947;BME280;13745;51.470;9.894;2022-09-12T01:30:20;99627.03;;;13.52;67.33
25947;BME280;13745;51.470;9.894;2022-09-12T01:33:21;99619.97;;;13.51;67.25
25947;BME280;13745;51.470;9.894;2022-09-12T01:36:30;99630.34;;;13.49;67.53
25947;BME280;13745;51.470;9.894;2022-09-12T01:39:28;99625.53;;;13.46;67.32
25947;BME280;13745;51.470;9.894;2022-09-12T01:42:19;99625.53;;;13.46;67.35
25947;BME280;13745;51.470;9.894;2022-09-12T01:45:10;99620.09;;;13.46;67.04
25947;BME280;13745;51.470;9.894;2022-09-12T01:48:07;99631.28;;;13.45;67.44
25947;BME280;13745;51.470;9.894;2022-09-12T01:51:02;99630.59;;;13.40;67.34
25947;BME280;13745;51.470;9.894;2022-09-12T01:53:53;99628.97;;;13.39;67.40
25947;BME280;13745;51.470;9.894;2022-09-12T01:56:42;99627.38;;;13.38;67.33
25947;BME280;13745;51.470;9.894;2022-09-12T01:59:34;99623.66;;;13.34;67.35
25947;BME280;13745;51.470;9.894;2022-09-12T02:02:27;99613.91;;;13.33;67.53
25947;BME280;13745;51.470;9.894;2022-09-12T02:05:19;99618.53;;;13.32;67.65
25947;BME280;13745;51.470;9.894;2022-09-12T02:08:12;99618.84;;;13.31;67.67
25947;BME280;13745;51.470;9.894;2022-09-12T02:11:03;99613.41;;;13.31;67.68
25947;BME280;13745;51.470;9.894;2022-09-12T02:13:53;99614.53;;;13.30;67.67
25947;BME280;13745;51.470;9.894;2022-09-12T02:16:42;99613.81;;;13.24;67.80
25947;BME280;13745;51.470;9.894;2022-09-12T02:19:34;99610.91;;;13.21;67.70
25947;BME280;13745;51.470;9.894;2022-09-12T02:22:25;99614.72;;;13.20;67.71
25947;BME280;13745;51.470;9.894;2022-09-12T02:25:13;99616.78;;;13.15;67.72
25947;BME280;13745;51.470;9.894;2022-09-12T02:28:07;99615.75;;;13.11;67.92
25947;BME280;13745;51.470;9.894;2022-09-12T02:31:00;99626.63;;;13.11;67.80
25947;BME280;13745;51.470;9.894;2022-09-12T02:33:53;99618.78;;;13.09;67.82
25947;BME280;13745;51.470;9.894;2022-09-12T02:36:48;99619.91;;;13.08;67.80
25947;BME280;13745;51.470;9.894;2022-09-12T02:39:37;99616.19;;;13.04;68.12
25947;BME280;13745;51.470;9.894;2022-09-12T02:42:23;99612.13;;;13.02;67.84
25947;BME280;13745;51.470;9.894;2022-09-12T02:45:10;99605.09;;;13.01;67.92
25947;BME280;13745;51.470;9.894;2022-09-12T02:47:59;99605.91;;;13.01;67.91
25947;BME280;13745;51.470;9.894;2022-09-12T02:50:47;99603.50;;;13.00;67.71
25947;BME280;13745;51.470;9.894;2022-09-12T02:53:34;99606.50;;;12.98;67.78
25947;BME280;13745;51.470;9.894;2022-09-12T02:56:24;99592.94;;;12.98;67.89
25947;BME280;13745;51.470;9.894;2022-09-12T02:59:14;99601.06;;;12.98;67.76
25947;BME280;13745;51.470;9.894;2022-09-12T03:02:14;99601.19;;;12.94;67.49
25947;BME280;13745;51.470;9.894;2022-09-12T03:05:23;99598.78;;;12.92;67.87
25947;BME280;13745;51.470;9.894;2022-09-12T03:08:34;99599.69;;;12.88;67.86
25947;BME280;13745;51.470;9.894;2022-09-12T03:15:06;99602.50;;;12.83;67.45
25947;BME280;13745;51.470;9.894;2022-09-12T03:18:05;99600.41;;;12.80;67.75
25947;BME280;13745;51.470;9.894;2022-09-12T03:21:00;99592.84;;;12.77;67.95
25947;BME280;13745;51.470;9.894;2022-09-12T03:23:49;99605.94;;;12.75;67.67
25947;BME280;13745;51.470;9.894;2022-09-12T03:26:41;99597.91;;;12.70;67.66
25947;BME280;13745;51.470;9.894;2022-09-12T03:29:29;99591.44;;;12.66;67.95
25947;BME280;13745;51.470;9.894;2022-09-12T03:32:15;99600.13;;;12.68;67.77
25947;BME280;13745;51.470;9.894;2022-09-12T03:35:01;99605.31;;;12.65;67.79
25947;BME280;13745;51.470;9.894;2022-09-12T03:37:49;99595.03;;;12.62;68.07
25947;BME280;13745;51.470;9.894;2022-09-12T03:40:36;99593.56;;;12.56;67.91
25947;BME280;13745;51.470;9.894;2022-09-12T03:43:23;99585.41;;;12.56;67.96
25947;BME280;13745;51.470;9.894;2022-09-12T03:46:09;99589.41;;;12.58;67.89
25947;BME280;13745;51.470;9.894;2022-09-12T03:48:54;99586.00;;;12.53;68.27
25947;BME280;13745;51.470;9.894;2022-09-12T03:51:40;99593.63;;;12.51;68.31
25947;BME280;13745;51.470;9.894;2022-09-12T03:54:26;99602.09;;;12.50;67.92
25947;BME280;13745;51.470;9.894;2022-09-12T03:57:13;99601.88;;;12.46;68.15
25947;BME280;13745;51.470;9.894;2022-09-12T04:00:00;99590.22;;;12.46;68.10
25947;BME280;13745;51.470;9.894;2022-09-12T04:02:46;99603.00;;;12.45;67.95
25947;BME280;13745;51.470;9.894;2022-09-12T04:05:32;99603.81;;;12.46;67.83
25947;BME280;13745;51.470;9.894;2022-09-12T04:08:18;99605.72;;;12.45;67.94
25947;BME280;13745;51.470;9.894;2022-09-12T04:11:04;99606.31;;;12.42;67.90
25947;BME280;13745;51.470;9.894;2022-09-12T04:13:50;99608.53;;;12.40;67.87
25947;BME280;13745;51.470;9.894;2022-09-12T04:16:37;99602.31;;;12.40;67.63
25947;BME280;13745;51.470;9.894;2022-09-12T04:19:24;99604.00;;;12.36;68.07
25947;BME280;13745;51.470;9.894;2022-09-12T04:22:10;99608.91;;;12.34;68.06
25947;BME280;13745;51.470;9.894;2022-09-12T04:24:55;99601.69;;;12.30;68.09
25947;BME280;13745;51.470;9.894;2022-09-12T04:27:41;99595.22;;;12.26;67.79
25947;BME280;13745;51.470;9.894;2022-09-12T04:30:27;99601.56;;;12.21;67.96
25947;BME280;13745;51.470;9.894;2022-09-12T04:33:14;99605.06;;;12.22;67.84
25947;BME280;13745;51.470;9.894;2022-09-12T04:36:04;99603.47;;;12.21;68.05
25947;BME280;13745;51.470;9.894;2022-09-12T04:38:50;99618.66;;;12.22;68.13
25947;BME280;13745;51.470;9.894;2022-09-12T04:41:38;99619.97;;;12.24;68.12
25947;BME280;13745;51.470;9.894;2022-09-12T04:44:24;99611.50;;;12.26;67.84
25947;BME280;13745;51.470;9.894;2022-09-12T04:47:09;99612.31;;;12.26;67.98
25947;BME280;13745;51.470;9.894;2022-09-12T04:49:56;99604.69;;;12.28;67.85
25947;BME280;13745;51.470;9.894;2022-09-12T04:52:42;99615.03;;;12.26;68.33
25947;BME280;13745;51.470;9.894;2022-09-12T04:55:28;99614.44;;;12.29;68.11
25947;BME280;13745;51.470;9.894;2022-09-12T04:58:14;99615.25;;;12.30;68.00
25947;BME280;13745;51.470;9.894;2022-09-12T05:01:04;99613.53;;;12.33;68.30
25947;BME280;13745;51.470;9.894;2022-09-12T05:03:51;99615.34;;;12.38;67.94
25947;BME280;13745;51.470;9.894;2022-09-12T05:06:39;99614.53;;;12.37;68.10
25947;BME280;13745;51.470;9.894;2022-09-12T05:09:25;99615.56;;;12.41;68.19
25947;BME280;13745;51.470;9.894;2022-09-12T05:12:12;99605.53;;;12.42;67.94
25947;BME280;13745;51.470;9.894;2022-09-12T05:14:58;99614.16;;;12.44;68.07
25947;BME280;13745;51.470;9.894;2022-09-12T05:17:44;99616.78;;;12.49;68.24
25947;BME280;13745;51.470;9.894;2022-09-12T05:20:30;99613.97;;;12.53;68.08
25947;BME280;13745;51.470;9.894;2022-09-12T05:23:17;99623.63;;;12.59;68.32
25947;BME280;13745;51.470;9.894;2022-09-12T05:26:04;99611.56;;;12.65;68.13
25947;BME280;13745;51.470;9.894;2022-09-12T05:28:52;99617.41;;;12.72;68.05
25947;BME280;13745;51.470;9.894;2022-09-12T05:31:38;99621.03;;;12.81;67.81
25947;BME280;13745;51.470;9.894;2022-09-12T05:34:24;99621.53;;;12.83;68.17
25947;BME280;13745;51.470;9.894;2022-09-12T05:37:11;99628.56;;;12.84;68.05
25947;BME280;13745;51.470;9.894;2022-09-12T05:39:57;99628.47;;;12.89;68.07
25947;BME280;13745;51.470;9.894;2022-09-12T05:42:43;99627.06;;;12.91;67.77
25947;BME280;13745;51.470;9.894;2022-09-12T05:45:29;99632.69;;;12.95;67.81
25947;BME280;13745;51.470;9.894;2022-09-12T05:48:15;99631.59;;;12.96;67.79
25947;BME280;13745;51.470;9.894;2022-09-12T05:51:02;99630.16;;;12.98;67.90
25947;BME280;13745;51.470;9.894;2022-09-12T05:53:52;99623.94;;;12.98;67.85
25947;BME280;13745;51.470;9.894;2022-09-12T05:56:41;99631.69;;;13.04;67.83
25947;BME280;13745;51.470;9.894;2022-09-12T05:59:27;99637.69;;;13.14;67.82
25947;BME280;13745;51.470;9.894;2022-09-12T06:02:12;99640.09;;;13.29;67.59
25947;BME280;13745;51.470;9.894;2022-09-12T06:04:58;99635.63;;;13.46;67.31
25947;BME280;13745;51.470;9.894;2022-09-12T06:07:45;99645.66;;;13.59;67.14
25947;BME280;13745;51.470;9.894;2022-09-12T06:10:30;99643.59;;;13.64;67.06
25947;BME280;13745;51.470;9.894;2022-09-12T06:13:19;99644.00;;;13.71;66.98
25947;BME280;13745;51.470;9.894;2022-09-12T06:16:07;99649.03;;;13.77;66.92
25947;BME280;13745;51.470;9.894;2022-09-12T06:18:54;99649.06;;;13.86;66.75
25947;BME280;13745;51.470;9.894;2022-09-12T06:21:40;99652.00;;;13.89;66.86
25947;BME280;13745;51.470;9.894;2022-09-12T06:24:25;99643.09;;;13.97;66.70
25947;BME280;13745;51.470;9.894;2022-09-12T06:27:11;99642.84;;;14.07;66.70
25947;BME280;13745;51.470;9.894;2022-09-12T06:29:58;99647.13;;;14.21;66.58
25947;BME280;13745;51.470;9.894;2022-09-12T06:32:44;99638.84;;;14.34;66.29
25947;BME280;13745;51.470;9.894;2022-09-12T06:35:29;99632.81;;;14.45;66.37
25947;BME280;13745;51.470;9.894;2022-09-12T06:38:15;99622.59;;;14.51;66.46
25947;BME280;13745;51.470;9.894;2022-09-12T06:41:02;99621.66;;;14.55;66.21
25947;BME280;13745;51.470;9.894;2022-09-12T06:43:48;99619.16;;;14.67;66.26
25947;BME280;13745;51.470;9.894;2022-09-12T06:46:35;99625.41;;;14.76;66.09
25947;BME280;13745;51.470;9.894;2022-09-12T06:49:21;99631.56;;;14.89;65.88
25947;BME280;13745;51.470;9.894;2022-09-12T06:52:07;99632.28;;;15.03;65.77
25947;BME280;13745;51.470;9.894;2022-09-12T06:54:52;99626.06;;;15.19;65.94
25947;BME280;13745;51.470;9.894;2022-09-12T06:57:38;99628.34;;;15.42;65.40
25947;BME280;13745;51.470;9.894;2022-09-12T07:00:24;99621.78;;;15.60;65.33
25947;BME280;13745;51.470;9.894;2022-09-12T07:03:11;99627.22;;;15.76;65.36
25947;BME280;13745;51.470;9.894;2022-09-12T07:06:01;99629.16;;;15.92;64.88
25947;BME280;13745;51.470;9.894;2022-09-12T07:08:47;99629.13;;;16.01;64.90
25947;BME280;13745;51.470;9.894;2022-09-12T07:11:35;99631.56;;;16.11;64.79
25947;BME280;13745;51.470;9.894;2022-09-12T07:14:21;99636.22;;;16.18;64.65
25947;BME280;13745;51.470;9.894;2022-09-12T07:17:07;99628.78;;;16.27;64.57
25947;BME280;13745;51.470;9.894;2022-09-12T07:19:54;99622.97;;;16.37;64.44
25947;BME280;13745;51.470;9.894;2022-09-12T07:22:40;99626.97;;;16.48;64.37
25947;BME280;13745;51.470;9.894;2022-09-12T07:25:26;99621.16;;;16.58;64.23
25947;BME280;13745;51.470;9.894;2022-09-12T07:28:11;99622.88;;;16.70;64.32
25947;BME280;13745;51.470;9.894;2022-09-12T07:31:04;99622.50;;;16.80;64.04
25947;BME280;13745;51.470;9.894;2022-09-12T07:33:50;99624.03;;;16.98;64.06
25947;BME280;13745;51.470;9.894;2022-09-12T07:36:40;99624.91;;;17.18;63.54
25947;BME280;13745;51.470;9.894;2022-09-12T07:39:27;99615.88;;;17.46;63.11
25947;BME280;13745;51.470;9.894;2022-09-12T07:42:12;99620.41;;;17.82;62.62
25947;BME280;13745;51.470;9.894;2022-09-12T07:44:58;99622.25;;;18.10;62.51
25947;BME280;13745;51.470;9.894;2022-09-12T07:47:44;99621.78;;;18.40;61.93
25947;BME280;13745;51.470;9.894;2022-09-12T07:50:30;99614.19;;;18.57;61.73
25947;BME280;13745;51.470;9.894;2022-09-12T07:53:18;99615.78;;;18.70;61.61
25947;BME280;13745;51.470;9.894;2022-09-12T07:56:05;99610.81;;;18.84;61.50
25947;BME280;13745;51.470;9.894;2022-09-12T07:58:51;99619.84;;;18.96;61.33
25947;BME280;13745;51.470;9.894;2022-09-12T08:01:37;99625.69;;;19.29;60.70
25947;BME280;13745;51.470;9.894;2022-09-12T08:04:23;99616.34;;;19.57;60.32
25947;BME280;13745;51.470;9.894;2022-09-12T08:07:09;99615.41;;;19.77;60.30
25947;BME280;13745;51.470;9.894;2022-09-12T08:09:56;99620.97;;;19.92;60.10
25947;BME280;13745;51.470;9.894;2022-09-12T08:12:43;99620.59;;;20.05;60.42
25947;BME280;13745;51.470;9.894;2022-09-12T08:15:29;99625.41;;;20.23;60.01
25947;BME280;13745;51.470;9.894;2022-09-12T08:18:15;99624.19;;;20.63;59.11
25947;BME280;13745;51.470;9.894;2022-09-12T08:21:03;99623.88;;;20.80;58.86
25947;BME280;13745;51.470;9.894;2022-09-12T08:23:51;99617.34;;;21.03;58.75
25947;BME280;13745;51.470;9.894;2022-09-12T08:26:38;99625.19;;;21.31;58.19
25947;BME280;13745;51.470;9.894;2022-09-12T08:29:24;99631.47;;;21.47;58.00
25947;BME280;13745;51.470;9.894;2022-09-12T08:32:10;99633.00;;;21.63;57.80
25947;BME280;13745;51.470;9.894;2022-09-12T08:34:56;99625.41;;;21.75;57.66
25947;BME280;13745;51.470;9.894;2022-09-12T08:37:43;99621.78;;;21.90;57.54
25947;BME280;13745;51.470;9.894;2022-09-12T08:40:28;99627.50;;;21.97;57.54
25947;BME280;13745;51.470;9.894;2022-09-12T08:43:25;99622.72;;;22.12;57.10
25947;BME280;13745;51.470;9.894;2022-09-12T08:46:18;99621.25;;;22.37;56.91
25947;BME280;13745;51.470;9.894;2022-09-12T08:49:08;99617.03;;;22.65;56.85
25947;BME280;13745;51.470;9.894;2022-09-12T08:51:59;99608.84;;;22.90;56.36
25947;BME280;13745;51.470;9.894;2022-09-12T08:54:47;99605.31;;;23.15;56.21
25947;BME280;13745;51.470;9.894;2022-09-12T08:57:33;99607.41;;;23.43;55.57
25947;BME280;13745;51.470;9.894;2022-09-12T09:00:20;99597.56;;;23.75;55.07
25947;BME280;13745;51.470;9.894;2022-09-12T09:03:19;99600.81;;;24.05;54.81
25947;BME280;13745;51.470;9.894;2022-09-12T09:06:20;99600.47;;;24.43;54.02
25947;BME280;13745;51.470;9.894;2022-09-12T09:09:12;99601.63;;;24.77;53.38
25947;BME280;13745;51.470;9.894;2022-09-12T09:12:08;99600.84;;;25.23;52.83
25947;BME280;13745;51.470;9.894;2022-09-12T09:15:11;99600.50;;;25.87;52.16
25947;BME280;13745;51.470;9.894;2022-09-12T09:18:10;99595.31;;;27.00;50.72
25947;BME280;13745;51.470;9.894;2022-09-12T09:21:02;99598.72;;;30.53;44.20
25947;BME280;13745;51.470;9.894;2022-09-12T09:23:53;99600.25;;;35.46;35.36
25947;BME280;13745;51.470;9.894;2022-09-12T09:26:45;99602.34;;;38.17;31.19
25947;BME280;13745;51.470;9.894;2022-09-12T09:29:36;99596.97;;;40.88;27.73
25947;BME280;13745;51.470;9.894;2022-09-12T09:32:26;99596.22;;;41.69;26.03
25947;BME280;13745;51.470;9.894;2022-09-12T09:35:16;99592.53;;;42.42;25.09
25947;BME280;13745;51.470;9.894;2022-09-12T09:38:11;99579.53;;;42.41;24.69
25947;BME280;13745;51.470;9.894;2022-09-12T09:41:15;99579.53;;;42.41;24.16
25947;BME280;13745;51.470;9.894;2022-09-12T09:44:03;99574.41;;;42.45;25.93
25947;BME280;13745;51.470;9.894;2022-09-12T09:46:52;99577.94;;;42.59;24.17
25947;BME280;13745;51.470;9.894;2022-09-12T09:49:39;99570.38;;;42.56;23.39
25947;BME280;13745;51.470;9.894;2022-09-12T09:52:28;99565.63;;;42.03;23.51
25947;BME280;13745;51.470;9.894;2022-09-12T09:55:20;99561.59;;;41.23;23.90
25947;BME280;13745;51.470;9.894;2022-09-12T09:58:07;99563.25;;;39.93;24.75
25947;BME280;13745;51.470;9.894;2022-09-12T10:00:57;99558.34;;;38.83;25.84
25947;BME280;13745;51.470;9.894;2022-09-12T10:03:48;99551.84;;;37.98;26.55
25947;BME280;13745;51.470;9.894;2022-09-12T10:06:36;99545.13;;;37.22;27.05
25947;BME280;13745;51.470;9.894;2022-09-12T10:09:25;99533.63;;;36.78;26.73
25947;BME280;13745;51.470;9.894;2022-09-12T10:12:20;99543.91;;;36.21;27.67
25947;BME280;13745;51.470;9.894;2022-09-12T10:15:16;99536.44;;;35.85;28.08
25947;BME280;13745;51.470;9.894;2022-09-12T10:18:02;99543.94;;;35.55;28.20
25947;BME280;13745;51.470;9.894;2022-09-12T10:20:48;99539.63;;;35.05;28.23
25947;BME280;13745;51.470;9.894;2022-09-12T10:23:35;99542.41;;;34.80;27.96
25947;BME280;13745;51.470;9.894;2022-09-12T10:26:26;99530.16;;;35.11;27.61
25947;BME280;13745;51.470;9.894;2022-09-12T10:29:20;99525.25;;;35.36;27.15
25947;BME280;13745;51.470;9.894;2022-09-12T10:32:08;99531.09;;;35.54;27.59
25947;BME280;13745;51.470;9.894;2022-09-12T10:34:57;99518.06;;;35.68;27.00
25947;BME280;13745;51.470;9.894;2022-09-12T10:37:51;99518.50;;;35.46;27.42
25947;BME280;13745;51.470;9.894;2022-09-12T10:40:41;99521.53;;;35.51;26.66
25947;BME280;13745;51.470;9.894;2022-09-12T10:43:29;99515.78;;;35.76;26.66
25947;BME280;13745;51.470;9.894;2022-09-12T10:46:28;99510.69;;;35.83;26.46
25947;BME280;13745;51.470;9.894;2022-09-12T10:49:23;99509.31;;;35.54;26.42
25947;BME280;13745;51.470;9.894;2022-09-12T10:52:19;99507.44;;;35.39;26.62
25947;BME280;13745;51.470;9.894;2022-09-12T10:55:12;99506.28;;;35.82;26.10
25947;BME280;13745;51.470;9.894;2022-09-12T10:58:14;99506.00;;;36.52;25.44
25947;BME280;13745;51.470;9.894;2022-09-12T11:01:11;99503.19;;;37.29;24.40
25947;BME280;13745;51.470;9.894;2022-09-12T11:04:40;99503.50;;;38.37;23.78
25947;BME280;13745;51.470;9.894;2022-09-12T11:07:37;99506.69;;;39.43;22.67
25947;BME280;13745;51.470;9.894;2022-09-12T11:10:29;99494.41;;;40.49;21.83
25947;BME280;13745;51.470;9.894;2022-09-12T11:13:31;99490.53;;;40.80;21.42
25947;BME280;13745;51.470;9.894;2022-09-12T11:16:24;99497.19;;;41.78;21.71
25947;BME280;13745;51.470;9.894;2022-09-12T11:19:30;99502.97;;;42.53;20.47
25947;BME280;13745;51.470;9.894;2022-09-12T11:22:29;99503.91;;;43.00;19.67
25947;BME280;13745;51.470;9.894;2022-09-12T11:25:27;99489.50;;;43.20;19.57
25947;BME280;13745;51.470;9.894;2022-09-12T11:28:26;99485.91;;;43.71;18.71
25947;BME280;13745;51.470;9.894;2022-09-12T11:31:30;99484.69;;;43.42;18.77
25947;BME280;13745;51.470;9.894;2022-09-12T11:34:26;99483.66;;;42.98;18.89
25947;BME280;13745;51.470;9.894;2022-09-12T11:37:48;99474.00;;;42.35;19.27
25947;BME280;13745;51.470;9.894;2022-09-12T11:40:41;99473.13;;;41.60;20.02
25947;BME280;13745;51.470;9.894;2022-09-12T11:43:36;99466.00;;;40.49;20.85
25947;BME280;13745;51.470;9.894;2022-09-12T11:46:28;99455.59;;;39.43;21.73
25947;BME280;13745;51.470;9.894;2022-09-12T11:49:21;99459.63;;;38.33;22.38
25947;BME280;13745;51.470;9.894;2022-09-12T11:52:13;99458.59;;;37.33;22.89
25947;BME280;13745;51.470;9.894;2022-09-12T11:55:01;99453.06;;;36.14;23.81
25947;BME280;13745;51.470;9.894;2022-09-12T11:57:50;99457.25;;;35.01;24.58
25947;BME280;13745;51.470;9.894;2022-09-12T12:00:41;99448.94;;;34.24;25.22
25947;BME280;13745;51.470;9.894;2022-09-12T12:03:33;99452.22;;;33.82;25.68
25947;BME280;13745;51.470;9.894;2022-09-12T12:06:25;99449.47;;;33.51;25.99
25947;BME280;13745;51.470;9.894;2022-09-12T12:09:14;99449.78;;;33.41;25.81
25947;BME280;13745;51.470;9.894;2022-09-12T12:12:04;99444.44;;;33.31;25.91
25947;BME280;13745;51.470;9.894;2022-09-12T12:14:53;99445.69;;;33.30;25.51
25947;BME280;13745;51.470;9.894;2022-09-12T12:17:40;99441.69;;;32.99;25.95
25947;BME280;13745;51.470;9.894;2022-09-12T12:20:28;99435.91;;;32.75;26.17
25947;BME280;13745;51.470;9.894;2022-09-12T12:23:22;99429.75;;;32.64;26.06
25947;BME280;13745;51.470;9.894;2022-09-12T12:26:42;99428.84;;;32.36;26.50
25947;BME280;13745;51.470;9.894;2022-09-12T12:29:40;99417.63;;;32.01;26.96
25947;BME280;13745;51.470;9.894;2022-09-12T12:32:27;99421.28;;;32.17;26.96
25947;BME280;13745;51.470;9.894;2022-09-12T12:35:38;99414.03;;;32.35;26.80
25947;BME280;13745;51.470;9.894;2022-09-12T12:38:28;99410.44;;;32.35;27.37
25947;BME280;13745;51.470;9.894;2022-09-12T12:41:43;99411.91;;;32.08;27.19
25947;BME280;13745;51.470;9.894;2022-09-12T12:44:48;99402.13;;;31.77;27.76
25947;BME280;13745;51.470;9.894;2022-09-12T12:47:40;99403.41;;;31.57;28.39
25947;BME280;13745;51.470;9.894;2022-09-12T12:50:28;99402.63;;;31.15;28.51
25947;BME280;13745;51.470;9.894;2022-09-12T12:53:21;99396.19;;;31.18;28.44
25947;BME280;13745;51.470;9.894;2022-09-12T12:56:26;99392.84;;;31.04;28.19
25947;BME280;13745;51.470;9.894;2022-09-12T12:59:20;99402.25;;;30.91;28.37
25947;BME280;13745;51.470;9.894;2022-09-12T13:02:17;99399.38;;;30.75;28.59
25947;BME280;13745;51.470;9.894;2022-09-12T13:05:14;99395.16;;;30.64;29.17
25947;BME280;13745;51.470;9.894;2022-09-12T13:08:06;99390.09;;;30.33;29.22
25947;BME280;13745;51.470;9.894;2022-09-12T13:10:56;99391.63;;;30.12;29.28
25947;BME280;13745;51.470;9.894;2022-09-12T13:13:48;99376.56;;;30.06;29.43
25947;BME280;13745;51.470;9.894;2022-09-12T13:16:37;99374.16;;;30.04;29.64
25947;BME280;13745;51.470;9.894;2022-09-12T13:19:27;99376.44;;;30.13;29.62
25947;BME280;13745;51.470;9.894;2022-09-12T13:22:14;99373.97;;;30.40;29.74
25947;BME280;13745;51.470;9.894;2022-09-12T13:25:00;99369.13;;;30.44;29.59
25947;BME280;13745;51.470;9.894;2022-09-12T13:27:56;99366.16;;;30.32;29.92
25947;BME280;13745;51.470;9.894;2022-09-12T13:30:44;99360.91;;;30.34;29.74
25947;BME280;13745;51.470;9.894;2022-09-12T13:33:39;99348.47;;;30.13;29.83
25947;BME280;13745;51.470;9.894;2022-09-12T13:36:52;99338.25;;;30.03;29.82
25947;BME280;13745;51.470;9.894;2022-09-12T13:39:46;99346.38;;;29.94;30.04
25947;BME280;13745;51.470;9.894;2022-09-12T13:42:38;99339.59;;;29.66;30.39
25947;BME280;13745;51.470;9.894;2022-09-12T13:45:24;99351.97;;;29.35;30.65
25947;BME280;13745;51.470;9.894;2022-09-12T13:48:15;99346.91;;;28.94;31.00
25947;BME280;13745;51.470;9.894;2022-09-12T13:51:04;99334.19;;;28.86;31.70
25947;BME280;13745;51.470;9.894;2022-09-12T13:53:51;99340.25;;;29.14;31.33
25947;BME280;13745;51.470;9.894;2022-09-12T13:56:46;99325.81;;;29.81;30.95
25947;BME280;13745;51.470;9.894;2022-09-12T13:59:37;99325.78;;;30.33;30.51
25947;BME280;13745;51.470;9.894;2022-09-12T14:02:25;99329.16;;;30.89;29.71
25947;BME280;13745;51.470;9.894;2022-09-12T14:05:16;99331.47;;;30.49;30.08
25947;BME280;13745;51.470;9.894;2022-09-12T14:08:06;99321.31;;;30.13;30.23
25947;BME280;13745;51.470;9.894;2022-09-12T14:10:53;99325.53;;;29.98;30.40
25947;BME280;13745;51.470;9.894;2022-09-12T14:13:39;99324.31;;;29.73;30.59
25947;BME280;13745;51.470;9.894;2022-09-12T14:16:25;99326.19;;;29.54;30.74
25947;BME280;13745;51.470;9.894;2022-09-12T14:19:12;99317.53;;;29.16;31.18
25947;BME280;13745;51.470;9.894;2022-09-12T14:21:59;99311.16;;;28.79;31.77
25947;BME280;13745;51.470;9.894;2022-09-12T14:24:47;99306.94;;;28.68;31.81
25947;BME280;13745;51.470;9.894;2022-09-12T14:27:39;99295.63;;;28.45;32.22
25947;BME280;13745;51.470;9.894;2022-09-12T14:30:30;99301.44;;;28.18;32.38
25947;BME280;13745;51.470;9.894;2022-09-12T14:33:18;99296.88;;;27.94;32.29
25947;BME280;13745;51.470;9.894;2022-09-12T14:36:16;99295.47;;;27.63;32.74
25947;BME280;13745;51.470;9.894;2022-09-12T14:39:05;99282.53;;;27.36;32.89
25947;BME280;13745;51.470;9.894;2022-09-12T14:42:03;99278.25;;;27.11;33.12
25947;BME280;13745;51.470;9.894;2022-09-12T14:44:53;99271.16;;;26.99;33.42
25947;BME280;13745;51.470;9.894;2022-09-12T14:47:42;99273.94;;;26.99;33.48
25947;BME280;13745;51.470;9.894;2022-09-12T14:50:34;99270.75;;;27.01;33.81
25947;BME280;13745;51.470;9.894;2022-09-12T14:53:24;99267.19;;;27.00;33.89
25947;BME280;13745;51.470;9.894;2022-09-12T14:56:11;99266.81;;;26.95;33.91
25947;BME280;13745;51.470;9.894;2022-09-12T14:59:29;99264.84;;;26.89;34.00
25947;BME280;13745;51.470;9.894;2022-09-12T15:02:24;99265.69;;;26.75;34.06
25947;BME280;13745;51.470;9.894;2022-09-12T15:05:16;99258.59;;;26.64;33.97
25947;BME280;13745;51.470;9.894;2022-09-12T15:08:02;99268.13;;;26.63;34.47
25947;BME280;13745;51.470;9.894;2022-09-12T15:10:47;99259.41;;;26.61;34.58